Latest Weather Observations for Delamere

IDD60801

Issued at 11:31 am CST Sunday 25 June 2017 (issued every 30 minutes, with the page automatically refreshed every 10 minutes)

About weather observations | Map of weather stations | Latest weather observations for NT | Other Formats
Station Details ID: 014949 Name: DELAMERE WEAPONS RANGE Lat: -15.74 Lon: 131.92 Height: 221.0 m
Data from the previous 72 hours. | See also: Recent months at Delamere
Date/Time
CST
Temp
°C
App
Temp
°C
Dew
Point
°C
Rel
Hum
%
Delta-T
°C
Wind Press
QNH
hPa
Press
MSL
hPa
Rain since
9am
mm
Dir  Spd
km/h
Gust
km/h
Spd
kts
Gust
kts
25/11:30am 26.6 24.5 12.3 41 8.3 NE 15 20 8 11 1015.5 - 0.0
25/11:00am 26.5 24.7 13.3 44 7.8 ENE 15 19 8 10 1015.8 - 0.0
25/10:30am 24.6 22.7 12.9 48 6.8 ENE 15 20 8 11 1016.1 - 0.0
25/10:00am 24.1 22.2 13.0 50 6.5 NE 15 22 8 12 1016.3 - 0.0
25/09:30am 22.3 20.2 12.5 53 5.6 ENE 15 22 8 12 1016.2 - 0.0
25/09:00am 21.0 19.6 12.2 57 5.0 ENE 11 17 6 9 1015.9 1015.1 0.0
25/08:30am 18.8 17.0 10.9 60 4.3 ENE 11 17 6 9 1015.5 - 0.0
25/08:00am 17.4 15.8 10.3 63 3.8 ENE 9 11 5 6 1015.2 - 0.0
25/07:30am 15.0 13.6 9.4 69 2.9 E 7 9 4 5 1014.6 - 0.0
25/07:00am 14.3 12.8 8.3 67 3.0 E 6 6 3 3 1014.5 - 0.0
25/06:30am 15.0 13.3 8.5 65 3.3 E 7 9 4 5 1014.0 - 0.0
25/06:00am 15.4 13.7 8.4 63 3.6 E 7 9 4 5 1013.7 1013.0 0.0
25/05:30am 15.7 13.9 8.0 60 3.9 ENE 7 7 4 4 1013.4 - 0.0
25/05:00am 16.5 14.8 8.2 58 4.3 E 7 9 4 5 1013.4 - 0.0
25/04:30am 17.1 14.9 8.0 55 4.7 E 9 11 5 6 1013.3 - 0.0
25/04:00am 18.0 15.8 8.0 52 5.2 E 9 13 5 7 1013.1 - 0.0
25/03:30am 18.7 16.6 8.1 50 5.5 ESE 9 13 5 7 1013.2 - 0.0
25/03:00am 19.7 17.1 7.8 46 6.2 ESE 11 17 6 9 1013.3 1012.6 0.0
25/02:30am 20.5 17.5 7.8 44 6.6 ESE 13 19 7 10 1013.3 - 0.0
25/02:00am 20.6 18.3 8.9 47 6.2 SE 11 17 6 9 1013.5 - 0.0
25/01:30am 20.7 18.2 9.6 49 6.0 SSE 13 17 7 9 1013.7 - 0.0
25/01:00am 19.8 18.2 11.6 59 4.6 SSE 11 15 6 8 1014.0 - 0.0
25/12:30am 18.1 18.3 10.5 61 4.1 CALM 0 0 0 0 1013.8 - 0.0
25/12:00am 18.8 17.9 11.4 62 4.1 S 7 7 4 4 1013.6 1012.9 0.0
 
Date/Time
CST
Temp
°C
App
Temp
°C
Dew
Point
°C
Rel
Hum
%
Delta-T
°C
Wind Press
QNH
hPa
Press
MSL
hPa
Rain since
9am
mm
Dir  Spd
km/h
Gust
km/h
Spd
kts
Gust
kts
24/11:30pm 18.8 19.2 11.4 62 4.1 CALM 0 0 0 0 1013.5 - 0.0
24/11:00pm 19.4 19.7 10.9 58 4.7 CALM 0 0 0 0 1013.5 - 0.0
24/10:30pm 20.1 20.6 11.6 58 4.7 CALM 0 0 0 0 1013.6 - 0.0
24/10:00pm 20.2 19.8 11.1 56 5.0 E 4 6 2 3 1013.4 - 0.0
24/09:30pm 20.5 19.7 10.9 54 5.3 E 6 7 3 4 1013.3 - 0.0
24/09:00pm 21.2 20.3 10.7 51 5.8 ENE 6 6 3 3 1013.0 1012.3 0.0
24/08:30pm 22.2 21.6 11.6 51 6.0 ENE 6 7 3 4 1012.8 - 0.0
24/08:00pm 22.7 21.9 11.1 48 6.5 ENE 6 6 3 3 1012.4 - 0.0
24/07:30pm 23.9 23.1 10.9 44 7.3 E 6 7 3 4 1012.1 - 0.0
24/07:00pm 25.2 24.2 11.0 41 8.1 E 7 9 4 5 1011.9 - 0.0
24/06:30pm 26.4 25.3 10.5 37 9.0 E 7 9 4 5 1011.6 - 0.0
24/06:00pm 27.8 25.9 10.5 34 9.9 E 11 15 6 8 1011.4 1010.6 0.0
24/05:30pm 28.7 26.3 9.9 31 10.6 E 13 20 7 11 1011.2 - 0.0
24/05:00pm 29.3 26.6 10.4 31 10.8 E 15 24 8 13 1011.2 - 0.0
24/04:30pm 29.6 27.6 10.2 30 11.1 E 11 17 6 9 1011.2 - 0.0
24/04:00pm 29.6 26.7 9.7 29 11.3 ESE 15 24 8 13 1011.5 - 0.0
24/03:30pm 29.8 27.4 9.9 29 11.3 E 13 22 7 12 1011.5 - 0.0
24/03:00pm 29.5 27.0 11.1 32 10.7 ENE 15 24 8 13 1011.8 1011.0 0.0
24/02:30pm 29.3 26.2 10.4 31 10.8 ENE 17 26 9 14 1012.0 - 0.0
24/02:00pm 29.6 27.4 10.7 31 10.9 ESE 13 20 7 11 1012.6 - 0.0
24/01:30pm 29.2 26.5 10.3 31 10.8 E 15 20 8 11 1013.2 - 0.0
24/01:00pm 28.4 25.0 10.6 33 10.2 E 19 32 10 17 1013.9 - 0.0
24/12:30pm 28.5 25.6 11.1 34 10.0 ENE 17 26 9 14 1014.5 - 0.0
24/12:00pm 27.8 25.0 11.4 36 9.5 E 17 26 9 14 1015.0 1014.2 0.0
24/11:30am 27.2 25.6 13.9 44 8.0 E 15 20 8 11 1015.4 - 0.0
24/11:00am 26.0 25.1 14.8 50 6.8 E 13 19 7 10 1015.7 - 0.0
24/10:30am 24.5 23.6 14.9 55 5.8 NNE 13 19 7 10 1015.6 - 0.0
24/10:00am 23.4 22.0 15.5 61 4.8 NE 17 24 9 13 1015.8 - 0.0
24/09:30am 22.0 20.5 16.3 70 3.5 NE 19 24 10 13 1015.7 - 0.0
24/09:00am 19.9 19.3 14.7 72 3.1 NE 11 15 6 8 1015.7 1014.9 0.0
24/08:30am 18.8 17.5 13.6 72 3.0 E 13 19 7 10 1015.3 - 0.0
24/08:00am 17.6 16.4 12.7 73 2.8 E 11 13 6 7 1014.8 - 0.0
24/07:30am 16.5 15.6 12.7 78 2.1 ESE 9 11 5 6 1014.4 - 0.0
24/07:00am 16.1 15.2 12.5 79 2.0 E 9 13 5 7 1013.9 - 0.0
24/06:30am 16.4 15.2 12.8 79 2.0 E 11 13 6 7 1013.7 - 0.0
24/06:00am 16.0 15.3 13.1 83 1.6 SE 9 13 5 7 1013.6 1012.9 0.0
24/05:30am 15.7 16.2 11.5 76 2.3 CALM 0 0 0 0 1013.2 - 0.0
24/05:00am 16.2 16.8 12.0 76 2.3 CALM 0 0 0 0 1013.2 - 0.0
24/04:30am 16.5 17.1 11.9 74 2.5 CALM 0 0 0 0 1013.3 - 0.0
24/04:00am 17.6 18.0 12.5 72 2.9 ENE 2 6 1 3 1013.4 - 0.0
24/03:30am 18.2 17.7 12.6 70 3.2 ENE 7 9 4 5 1013.3 - 0.0
24/03:00am 18.9 17.8 13.1 69 3.3 NE 11 13 6 7 1013.4 1012.7 0.0
24/02:30am 18.8 18.3 12.8 68 3.4 ENE 7 7 4 4 1013.6 - 0.0
24/02:00am 19.4 19.0 13.1 67 3.6 NE 7 11 4 6 1013.7 - 0.0
24/01:30am 19.5 18.9 13.4 68 3.5 ENE 9 11 5 6 1013.8 - 0.0
24/01:00am 19.7 19.4 13.2 66 3.7 ENE 7 9 4 5 1014.0 - 0.0
24/12:30am 20.8 20.0 14.0 65 4.0 ENE 11 17 6 9 1014.4 - 0.0
24/12:00am 19.4 19.1 12.7 65 3.8 E 6 6 3 3 1014.1 1013.4 0.0
 
Date/Time
CST
Temp
°C
App
Temp
°C
Dew
Point
°C
Rel
Hum
%
Delta-T
°C
Wind Press
QNH
hPa
Press
MSL
hPa
Rain since
9am
mm
Dir  Spd
km/h
Gust
km/h
Spd
kts
Gust
kts
23/11:30pm 19.9 19.7 12.9 64 4.0 E 6 7 3 4 1014.4 - 0.0
23/11:00pm 20.3 20.0 12.8 62 4.3 ESE 6 7 3 4 1014.6 - 0.0
23/10:30pm 21.0 20.5 12.7 59 4.8 E 7 9 4 5 1014.6 - 0.0
23/10:00pm 21.3 21.4 12.7 58 4.9 ESE 4 6 2 3 1014.4 - 0.0
23/09:30pm 22.0 21.6 12.5 54 5.4 SE 6 6 3 3 1014.2 - 0.0
23/09:00pm 22.7 22.7 13.5 56 5.4 ESE 6 6 3 3 1014.0 1013.3 0.0
23/08:30pm 23.4 24.6 13.8 54 5.7 CALM 0 0 0 0 1013.8 - 0.0
23/08:00pm 23.8 24.8 13.1 51 6.2 CALM 0 0 0 0 1013.6 - 0.0
23/07:30pm 24.8 26.0 13.7 50 6.6 CALM 0 0 0 0 1013.2 - 0.0
23/07:00pm 25.8 26.8 13.3 46 7.4 CALM 0 0 0 0 1012.9 - 0.0
23/06:30pm 27.3 27.3 13.6 43 8.2 E 6 7 3 4 1012.8 - 0.0
23/06:00pm 28.4 27.3 13.1 39 9.1 ESE 11 15 6 8 1012.6 1011.8 0.0
23/05:30pm 29.3 28.3 13.5 38 9.5 E 11 15 6 8 1012.4 - 0.0
23/05:00pm 29.3 27.3 12.7 36 9.9 E 15 20 8 11 1012.1 - 0.0
23/04:30pm 29.6 27.9 12.5 35 10.1 E 13 24 7 13 1011.9 - 0.0
23/04:00pm 29.9 28.3 12.8 35 10.2 E 13 20 7 11 1011.9 - 0.0
23/03:30pm 29.9 28.0 11.9 33 10.6 E 13 22 7 12 1012.2 - 0.0
23/03:00pm 30.1 29.2 12.5 34 10.5 ENE 9 22 5 12 1012.6 1011.8 0.0
23/02:30pm 30.0 27.1 12.4 34 10.4 E 19 30 10 16 1012.9 - 0.0
23/02:00pm 29.8 27.5 13.1 36 10.0 ENE 17 32 9 17 1013.2 - 0.0
23/01:30pm 29.3 26.6 13.5 38 9.5 E 20 30 11 16 1013.8 - 0.0
23/01:00pm 29.2 26.5 13.4 38 9.5 E 20 28 11 15 1014.5 - 0.0
23/12:30pm 28.5 25.7 13.2 39 9.1 ENE 20 32 11 17 1015.1 - 0.0
23/12:00pm 28.0 25.6 13.9 42 8.5 ENE 19 30 10 16 1015.6 1014.8 0.0
23/11:30am 27.6 24.9 14.6 45 7.9 ENE 22 33 12 18 1016.2 - 0.0
23/11:00am 27.0 25.8 15.1 48 7.3 ENE 15 24 8 13 1016.6 - 0.0
23/10:30am 26.1 25.1 15.5 52 6.5 E 15 22 8 12 1016.7 - 0.0
23/10:00am 24.4 23.6 16.1 60 5.1 ENE 15 22 8 12 1016.7 - 0.0
23/09:30am 21.9 20.9 15.7 68 3.7 ENE 15 20 8 11 1016.8 - 0.0
23/09:05am 20.3 19.5 15.1 72 3.1 NE 13 15 7 8 1016.8 - 0.0
23/09:00am 20.2 19.4 15.2 73 3.0 ENE 13 17 7 9 1016.8 1016.1 0.0
23/08:30am 18.7 18.5 13.6 72 2.9 E 7 11 4 6 1016.5 - 0.0
23/08:00am 17.6 16.6 12.3 71 3.0 E 9 11 5 6 1016.2 - 0.0
23/07:41am 16.7 15.9 11.6 72 2.8 E 7 9 4 5 1016.0 - 0.0
23/07:30am 16.0 14.9 10.7 71 2.8 ESE 7 9 4 5 1015.9 - 0.0
23/07:00am 16.0 14.8 10.3 69 3.0 E 7 9 4 5 1015.7 - 0.0
23/06:30am 16.5 14.8 9.7 64 3.6 ESE 9 11 5 6 1015.4 - 0.0
23/06:00am 17.3 15.1 9.5 60 4.1 ESE 11 17 6 9 1015.3 1014.5 0.0
23/05:30am 17.6 15.4 9.2 58 4.4 E 11 15 6 8 1015.2 - 0.0
23/05:00am 17.7 15.8 9.1 57 4.5 ESE 9 13 5 7 1015.1 - 0.0
23/04:00am 18.3 15.8 8.0 51 5.3 SE 11 13 6 7 1015.1 - 0.0
23/03:30am 18.4 15.9 8.1 51 5.3 SE 11 15 6 8 1015.3 - 0.0
23/03:00am 18.3 15.8 8.3 52 5.2 ESE 11 13 6 7 1015.5 1014.7 0.0
23/02:30am 17.5 15.7 7.8 53 5.0 E 7 9 4 5 1015.8 - 0.0
23/02:00am 17.3 15.6 8.4 56 4.6 SE 7 9 4 5 1015.8 - 0.0
23/01:30am 16.8 16.5 8.5 58 4.3 CALM 0 0 0 0 1016.0 - 0.0
23/01:00am 17.3 16.5 8.2 55 4.7 ESE 2 6 1 3 1016.0 - 0.0
23/12:30am 18.0 17.6 8.3 53 5.0 CALM 0 0 0 0 1015.9 - 0.0
23/12:00am 18.3 17.2 8.3 52 5.2 E 4 6 2 3 1016.0 1015.2 0.0
 
Date/Time
CST
Temp
°C
App
Temp
°C
Dew
Point
°C
Rel
Hum
%
Delta-T
°C
Wind Press
QNH
hPa
Press
MSL
hPa
Rain since
9am
mm
Dir  Spd
km/h
Gust
km/h
Spd
kts
Gust
kts
22/11:30pm 18.4 16.8 7.8 50 5.5 E 6 7 3 4 1016.1 - 0.0
22/11:00pm 19.0 18.3 8.4 50 5.5 E 2 7 1 4 1016.1 - 0.0
22/10:30pm 19.9 19.7 8.9 49 5.8 CALM 0 0 0 0 1016.3 - 0.0
22/10:00pm 19.9 19.5 8.3 47 6.1 CALM 0 0 0 0 1016.3 - 0.0
22/09:30pm 20.6 20.4 8.9 47 6.2 CALM 0 0 0 0 1016.1 - 0.0
22/09:00pm 21.5 21.4 9.4 46 6.5 CALM 0 0 0 0 1015.9 1015.1 0.0
22/08:30pm 22.1 21.8 8.6 42 7.2 CALM 0 0 0 0 1015.7 - 0.0
22/08:00pm 22.8 22.6 9.2 42 7.4 CALM 0 0 0 0 1015.3 - 0.0
22/07:30pm 23.6 22.3 7.7 36 8.4 ENE 4 7 2 4 1015.0 - 0.0
22/07:00pm 25.0 23.4 8.1 34 9.1 E 6 6 3 3 1014.5 - 0.0
22/06:30pm 26.3 24.7 7.8 31 10.0 E 6 7 3 4 1014.0 - 0.0
22/06:00pm 28.2 26.0 8.0 28 11.1 E 9 13 5 7 1013.6 1012.9 0.0
22/05:30pm 29.2 26.5 7.2 25 11.9 E 11 17 6 9 1013.5 - 0.0
22/05:00pm 29.7 25.8 7.0 24 12.3 ENE 17 22 9 12 1013.3 - 0.0
22/04:30pm 29.7 26.9 7.0 24 12.3 ENE 11 19 6 10 1013.2 - 0.0
22/04:00pm 29.9 26.4 7.2 24 12.4 ENE 15 22 8 12 1013.2 - 0.0
22/03:30pm 30.5 28.1 7.0 23 12.8 E 9 17 5 9 1013.2 - 0.0
22/03:00pm 29.9 26.8 7.2 24 12.4 E 13 24 7 13 1013.5 1012.8 0.0
22/02:30pm 29.8 27.0 7.1 24 12.3 ENE 11 20 6 11 1013.8 - 0.0
22/02:00pm 29.9 26.9 7.7 25 12.2 SE 13 24 7 13 1014.1 - 0.0
22/01:30pm 29.4 25.9 7.3 25 12.0 E 15 24 8 13 1014.8 - 0.0
22/01:00pm 28.4 24.1 7.1 26 11.5 ENE 19 26 10 14 1015.3 - 0.0
22/12:30pm 28.6 24.7 7.2 26 11.6 E 17 28 9 15 1015.9 - 0.0
22/12:00pm 28.0 23.6 7.3 27 11.2 ESE 20 26 11 14 1016.4 1015.6 0.0

Other Formats:

Comma delimited format used in spreadsheet applications
http://www.bom.gov.au/fwo/IDD60801/IDD60801.94225.axf

JavaScript Object Notation format (JSON) in row-major order
http://www.bom.gov.au/fwo/IDD60801/IDD60801.94225.json